Time,TemperatureF,DewpointF,PressureIn,WindDirection,WindDirectionDegrees,WindSpeedMPH,WindSpeedGustMPH,Humidity,HourlyPrecipIn,Conditions,Clouds,dailyrainin,SoftwareType,DateUTC
2013-01-06 00:07:00,34.1,32.0,30.09,WNW,297,4.0,-999.0,91,-99.99,,,0.00,weatherlink.com 1.10,2013-01-06 05:07:00,
2013-01-06 00:22:00,34.0,32.0,30.08,South,169,1.0,-999.0,91,-99.99,,,0.00,weatherlink.com 1.10,2013-01-06 05:22:00,
2013-01-06 00:37:00,34.1,32.0,30.08,South,188,11.0,-999.0,91,-99.99,,,0.00,weatherlink.com 1.10,2013-01-06 05:37:00,
2013-01-06 00:52:00,34.3,32.0,30.08,NNE,20,2.0,-999.0,90,-99.99,,,0.00,weatherlink.com 1.10,2013-01-06 05:52:00,
2013-01-06 01:07:00,34.6,32.0,30.07,WSW,239,4.0,-999.0,90,-99.99,,,0.00,weatherlink.com 1.10,2013-01-06 06:07:00,
2013-01-06 01:22:00,34.8,32.0,30.06,SSW,211,3.0,-999.0,89,-99.99,,,0.00,weatherlink.com 1.10,2013-01-06 06:22:00,
2013-01-06 01:37:00,35.1,32.0,30.06,NNW,329,2.0,-999.0,89,-99.99,,,0.00,weatherlink.com 1.10,2013-01-06 06:37:00,
2013-01-06 01:52:00,35.2,32.0,30.05,NNW,341,4.0,-999.0,88,-99.99,,,0.00,weatherlink.com 1.10,2013-01-06 06:52:00,
2013-01-06 02:07:00,35.3,32.0,30.04,WNW,283,4.0,-999.0,88,-99.99,,,0.00,weatherlink.com 1.10,2013-01-06 07:07:00,
2013-01-06 02:22:00,35.4,32.0,30.04,ENE,77,4.0,-999.0,87,-99.99,,,0.00,weatherlink.com 1.10,2013-01-06 07:22:00,
2013-01-06 02:37:00,35.6,32.0,30.04,SSW,198,6.0,-999.0,87,-99.99,,,0.00,weatherlink.com 1.10,2013-01-06 07:37:00,
2013-01-06 02:52:00,35.7,32.0,30.04,West,274,6.0,-999.0,86,-99.99,,,0.00,weatherlink.com 1.10,2013-01-06 07:52:00,
2013-01-06 03:07:00,35.7,32.0,30.04,ESE,115,5.0,-999.0,86,-99.99,,,0.00,weatherlink.com 1.10,2013-01-06 08:07:00,
2013-01-06 03:22:00,35.7,32.0,30.02,SSW,210,12.0,-999.0,86,-99.99,,,0.00,weatherlink.com 1.10,2013-01-06 08:22:00,
2013-01-06 03:37:00,35.7,32.0,30.03,WSW,238,1.0,-999.0,85,-99.99,,,0.00,weatherlink.com 1.10,2013-01-06 08:37:00,
2013-01-06 03:52:00,36.1,32.0,30.02,SSW,203,5.0,-999.0,84,-99.99,,,0.00,weatherlink.com 1.10,2013-01-06 08:52:00,
2013-01-06 04:07:00,-999.0,-99.9,30.01,North,-999,-999.0,-999.0,-999,-99.99,,,0.00,weatherlink.com 1.10,2013-01-06 09:07:00,
2013-01-06 04:22:00,-999.0,-99.9,30.01,North,-999,-999.0,-999.0,-999,-99.99,,,0.00,weatherlink.com 1.10,2013-01-06 09:22:00,
2013-01-06 04:37:00,-999.0,-99.9,30.01,North,-999,-999.0,-999.0,-999,-99.99,,,0.00,weatherlink.com 1.10,2013-01-06 09:37:00,
2013-01-06 04:52:00,-999.0,-99.9,30.00,North,-999,-999.0,-999.0,-999,-99.99,,,0.00,weatherlink.com 1.10,2013-01-06 09:52:00,
2013-01-06 05:07:00,-999.0,-99.9,29.99,North,-999,-999.0,-999.0,-999,-99.99,,,0.00,weatherlink.com 1.10,2013-01-06 10:07:00,
2013-01-06 05:22:00,-999.0,-99.9,29.98,North,-999,-999.0,-999.0,-999,-99.99,,,0.00,weatherlink.com 1.10,2013-01-06 10:22:00,
2013-01-06 05:37:00,-999.0,-99.9,29.98,North,-999,-999.0,-999.0,-999,-99.99,,,0.00,weatherlink.com 1.10,2013-01-06 10:37:00,
2013-01-06 05:52:00,-999.0,-99.9,29.98,North,-999,-999.0,-999.0,-999,-99.99,,,0.00,weatherlink.com 1.10,2013-01-06 10:52:00,
2013-01-06 06:07:00,-999.0,-99.9,29.98,North,-999,-999.0,-999.0,-999,-99.99,,,0.00,weatherlink.com 1.10,2013-01-06 11:07:00,
2013-01-06 06:22:00,-999.0,-99.9,29.98,North,-999,-999.0,-999.0,-999,-99.99,,,0.00,weatherlink.com 1.10,2013-01-06 11:22:00,
2013-01-06 06:37:00,-999.0,-99.9,29.98,North,-999,-999.0,-999.0,-999,-99.99,,,0.00,weatherlink.com 1.10,2013-01-06 11:37:00,
2013-01-06 06:52:00,-999.0,-99.9,29.98,North,-999,-999.0,-999.0,-999,-99.99,,,0.00,weatherlink.com 1.10,2013-01-06 11:52:00,
2013-01-06 07:07:00,-999.0,-99.9,29.98,North,-999,-999.0,-999.0,-999,-99.99,,,0.00,weatherlink.com 1.10,2013-01-06 12:07:00,
2013-01-06 07:22:00,-999.0,-99.9,29.97,North,-999,-999.0,-999.0,-999,-99.99,,,0.00,weatherlink.com 1.10,2013-01-06 12:22:00,
2013-01-06 07:37:00,-999.0,-99.9,29.97,North,-999,-999.0,-999.0,-999,-99.99,,,0.00,weatherlink.com 1.10,2013-01-06 12:37:00,
2013-01-06 07:52:00,-999.0,-99.9,29.97,North,-999,-999.0,-999.0,-999,-99.99,,,0.00,weatherlink.com 1.10,2013-01-06 12:52:00,
2013-01-06 08:07:00,-999.0,-99.9,29.97,North,-999,-999.0,-999.0,-999,-99.99,,,0.00,weatherlink.com 1.10,2013-01-06 13:07:00,
2013-01-06 08:22:00,-999.0,-99.9,29.97,North,-999,-999.0,-999.0,-999,-99.99,,,0.00,weatherlink.com 1.10,2013-01-06 13:22:00,
2013-01-06 08:37:00,-999.0,-99.9,29.98,North,-999,-999.0,-999.0,-999,-99.99,,,0.00,weatherlink.com 1.10,2013-01-06 13:37:00,
2013-01-06 08:52:00,-999.0,-99.9,29.98,North,-999,-999.0,-999.0,-999,-99.99,,,0.00,weatherlink.com 1.10,2013-01-06 13:52:00,
2013-01-06 09:07:00,36.2,32.0,29.99,WNW,294,1.0,-999.0,86,-99.99,,,0.00,weatherlink.com 1.10,2013-01-06 14:07:00,
2013-01-06 09:22:00,36.3,33.0,29.99,WSW,238,4.0,-999.0,86,-99.99,,,0.00,weatherlink.com 1.10,2013-01-06 14:22:00,
2013-01-06 09:37:00,36.5,33.0,29.99,SSW,213,5.0,-999.0,86,-99.99,,,0.00,weatherlink.com 1.10,2013-01-06 14:37:00,
2013-01-06 09:52:00,36.7,33.0,29.99,WSW,250,4.0,-999.0,85,-99.99,,,0.00,weatherlink.com 1.10,2013-01-06 14:52:00,
2013-01-06 10:07:00,36.9,33.0,29.99,SSE,159,2.0,-999.0,85,-99.99,,,0.00,weatherlink.com 1.10,2013-01-06 15:07:00,
2013-01-06 10:22:00,36.9,33.0,30.00,South,183,3.0,-999.0,85,-99.99,,,0.00,weatherlink.com 1.10,2013-01-06 15:22:00,
2013-01-06 10:37:00,37.1,33.0,29.99,South,183,4.0,-999.0,85,-99.99,,,0.00,weatherlink.com 1.10,2013-01-06 15:37:00,
2013-01-06 10:52:00,37.2,33.0,29.99,NW,308,0.0,-999.0,85,-99.99,,,0.00,weatherlink.com 1.10,2013-01-06 15:52:00,
2013-01-06 11:07:00,37.4,33.0,29.99,SSW,203,5.0,-999.0,84,-99.99,,,0.01,weatherlink.com 1.10,2013-01-06 16:07:00,
2013-01-06 11:22:00,37.4,33.0,29.99,South,179,5.0,-999.0,84,-99.99,,,0.01,weatherlink.com 1.10,2013-01-06 16:22:00,
2013-01-06 11:37:00,37.5,33.0,29.98,SW,218,6.0,-999.0,84,-99.99,,,0.01,weatherlink.com 1.10,2013-01-06 16:37:00,
2013-01-06 11:52:00,37.6,33.0,29.98,ENE,72,1.0,-999.0,84,-99.99,,,0.01,weatherlink.com 1.10,2013-01-06 16:52:00,
2013-01-06 12:07:00,37.5,33.0,29.98,East,94,4.0,-999.0,84,-99.99,,,0.02,weatherlink.com 1.10,2013-01-06 17:07:00,
2013-01-06 12:22:00,37.4,33.0,29.98,SW,214,5.0,-999.0,85,-99.99,,,0.02,weatherlink.com 1.10,2013-01-06 17:22:00,
2013-01-06 12:37:00,37.4,33.0,29.98,SW,228,1.0,-999.0,85,-99.99,,,0.02,weatherlink.com 1.10,2013-01-06 17:37:00,
2013-01-06 12:52:00,37.5,33.0,29.97,WNW,292,2.0,-999.0,85,-99.99,,,0.02,weatherlink.com 1.10,2013-01-06 17:52:00,
2013-01-06 13:07:00,37.3,34.0,29.97,West,262,2.0,-999.0,86,-99.99,,,0.02,weatherlink.com 1.10,2013-01-06 18:07:00,
2013-01-06 13:22:00,37.2,33.0,29.98,SW,218,7.0,-999.0,86,-99.99,,,0.02,weatherlink.com 1.10,2013-01-06 18:22:00,
2013-01-06 13:37:00,37.1,33.0,29.98,SW,226,5.0,-999.0,86,-99.99,,,0.02,weatherlink.com 1.10,2013-01-06 18:37:00,
2013-01-06 13:52:00,36.7,33.0,29.98,West,264,6.0,-999.0,87,-99.99,,,0.02,weatherlink.com 1.10,2013-01-06 18:52:00,
2013-01-06 14:07:00,35.9,33.0,29.98,SW,228,3.0,-999.0,90,-99.99,,,0.02,weatherlink.com 1.10,2013-01-06 19:07:00,
2013-01-06 14:22:00,35.4,33.0,29.99,ENE,70,4.0,-999.0,91,-99.99,,,0.02,weatherlink.com 1.10,2013-01-06 19:22:00,
2013-01-06 14:37:00,35.4,32.0,30.00,WNW,291,6.0,-999.0,87,-99.99,,,0.02,weatherlink.com 1.10,2013-01-06 19:37:00,
2013-01-06 15:22:00,35.4,31.0,30.02,WNW,297,6.0,-999.0,84,-99.99,,,0.02,weatherlink.com 1.10,2013-01-06 20:22:00,
2013-01-06 15:37:00,35.0,31.0,30.04,West,269,6.0,-999.0,85,-99.99,,,0.02,weatherlink.com 1.10,2013-01-06 20:37:00,
2013-01-06 15:53:00,34.8,31.0,30.05,WSW,252,3.0,-999.0,86,-99.99,,,0.02,weatherlink.com 1.10,2013-01-06 20:53:00,
2013-01-06 16:07:00,34.3,31.0,30.06,WNW,297,4.0,-999.0,87,-99.99,,,0.02,weatherlink.com 1.10,2013-01-06 21:07:00,
2013-01-06 16:22:00,34.0,31.0,30.07,WNW,297,8.0,-999.0,88,-99.99,,,0.02,weatherlink.com 1.10,2013-01-06 21:22:00,
2013-01-06 16:37:00,33.7,31.0,30.07,West,281,9.0,-999.0,89,-99.99,,,0.02,weatherlink.com 1.10,2013-01-06 21:37:00,
2013-01-06 16:52:00,33.5,31.0,30.09,West,276,8.0,-999.0,90,-99.99,,,0.02,weatherlink.com 1.10,2013-01-06 21:52:00,
2013-01-06 17:07:00,33.5,31.0,30.09,WNW,297,6.0,-999.0,90,-99.99,,,0.02,weatherlink.com 1.10,2013-01-06 22:07:00,
2013-01-06 17:22:00,33.6,31.0,30.10,WNW,294,4.0,-999.0,89,-99.99,,,0.02,weatherlink.com 1.10,2013-01-06 22:22:00,
2013-01-06 17:37:00,33.6,30.0,30.11,West,267,4.0,-999.0,88,-99.99,,,0.02,weatherlink.com 1.10,2013-01-06 22:37:00,
2013-01-06 17:52:00,33.6,30.0,30.12,WNW,288,3.0,-999.0,88,-99.99,,,0.02,weatherlink.com 1.10,2013-01-06 22:52:00,
2013-01-06 18:07:00,33.5,30.0,30.13,West,272,7.0,-999.0,88,-99.99,,,0.02,weatherlink.com 1.10,2013-01-06 23:07:00,
2013-01-06 18:37:00,33.5,30.0,30.15,WNW,298,3.0,-999.0,88,-99.99,,,0.02,weatherlink.com 1.10,2013-01-06 23:37:00,
2013-01-06 18:52:00,33.5,30.0,30.16,West,267,3.0,-999.0,88,-99.99,,,0.02,weatherlink.com 1.10,2013-01-06 23:52:00,
2013-01-06 19:07:00,33.5,30.0,30.17,West,276,4.0,-999.0,88,-99.99,,,0.02,weatherlink.com 1.10,2013-01-07 00:07:00,
2013-01-06 19:23:00,33.4,30.0,30.18,WSW,249,6.0,-999.0,88,-99.99,,,0.02,weatherlink.com 1.10,2013-01-07 00:23:00,
2013-01-06 19:37:00,33.2,30.0,30.19,West,267,0.0,-999.0,88,-99.99,,,0.02,weatherlink.com 1.10,2013-01-07 00:37:00,
2013-01-06 19:52:00,33.0,30.0,30.20,West,281,2.0,-999.0,88,-99.99,,,0.02,weatherlink.com 1.10,2013-01-07 00:52:00,
2013-01-06 20:07:00,32.9,30.0,30.20,West,267,3.0,-999.0,88,-99.99,,,0.02,weatherlink.com 1.10,2013-01-07 01:07:00,
2013-01-06 20:22:00,32.8,30.0,30.21,West,279,1.0,-999.0,88,-99.99,,,0.02,weatherlink.com 1.10,2013-01-07 01:22:00,
2013-01-06 20:38:00,32.7,30.0,30.21,WNW,287,3.0,-999.0,88,-99.99,,,0.02,weatherlink.com 1.10,2013-01-07 01:38:00,
2013-01-06 20:53:00,32.6,30.0,30.22,West,269,2.0,-999.0,88,-99.99,,,0.02,weatherlink.com 1.10,2013-01-07 01:53:00,
2013-01-06 21:07:00,32.7,30.0,30.23,WSW,256,3.0,-999.0,89,-99.99,,,0.02,weatherlink.com 1.10,2013-01-07 02:07:00,
2013-01-06 21:23:00,32.7,30.0,30.23,WNW,283,2.0,-999.0,89,-99.99,,,0.02,weatherlink.com 1.10,2013-01-07 02:23:00,
2013-01-06 21:38:00,32.9,30.0,30.24,WNW,293,1.0,-999.0,89,-99.99,,,0.02,weatherlink.com 1.10,2013-01-07 02:38:00,
2013-01-06 21:53:00,33.7,30.0,30.25,WNW,297,3.0,-999.0,86,-99.99,,,0.02,weatherlink.com 1.10,2013-01-07 02:53:00,
2013-01-06 22:08:00,34.0,29.0,30.25,NW,308,4.0,-999.0,83,-99.99,,,0.02,weatherlink.com 1.10,2013-01-07 03:08:00,
2013-01-06 22:23:00,34.1,29.0,30.26,WNW,283,3.0,-999.0,82,-99.99,,,0.02,weatherlink.com 1.10,2013-01-07 03:23:00,
2013-01-06 22:38:00,34.0,29.0,30.27,NW,322,3.0,-999.0,81,-99.99,,,0.02,weatherlink.com 1.10,2013-01-07 03:38:00,
2013-01-06 22:53:00,33.9,29.0,30.27,WNW,284,1.0,-999.0,81,-99.99,,,0.02,weatherlink.com 1.10,2013-01-07 03:53:00,
2013-01-06 23:08:00,33.8,29.0,30.29,WNW,295,2.0,-999.0,81,-99.99,,,0.02,weatherlink.com 1.10,2013-01-07 04:08:00,
2013-01-06 23:23:00,33.7,28.0,30.29,WNW,297,2.0,-999.0,81,-99.99,,,0.02,weatherlink.com 1.10,2013-01-07 04:23:00,
2013-01-06 23:38:00,33.7,28.0,30.30,WNW,294,4.0,-999.0,81,-99.99,,,0.02,weatherlink.com 1.10,2013-01-07 04:38:00,
2013-01-06 23:53:00,33.6,28.0,30.31,WNW,293,1.0,-999.0,81,-99.99,,,0.02,weatherlink.com 1.10,2013-01-07 04:53:00,